sensor_id;sensor_type;location;lat;lon;timestamp;pressure;altitude;pressure_sealevel;temperature;humidity
27429;BME280;14881;48.092;11.574;2023-04-25T00:00:29;94828.19;;;6.51;100.00
27429;BME280;14881;48.092;11.574;2023-04-25T00:02:56;94823.34;;;6.48;100.00
27429;BME280;14881;48.092;11.574;2023-04-25T00:05:26;94823.34;;;6.43;100.00
27429;BME280;14881;48.092;11.574;2023-04-25T00:07:57;94814.25;;;6.39;100.00
27429;BME280;14881;48.092;11.574;2023-04-25T00:10:25;94818.03;;;6.33;100.00
27429;BME280;14881;48.092;11.574;2023-04-25T00:12:53;94812.13;;;6.31;100.00
27429;BME280;14881;48.092;11.574;2023-04-25T00:15:20;94818.84;;;6.34;100.00
27429;BME280;14881;48.092;11.574;2023-04-25T00:17:48;94828.81;;;6.38;100.00
27429;BME280;14881;48.092;11.574;2023-04-25T00:20:16;94830.91;;;6.46;100.00
27429;BME280;14881;48.092;11.574;2023-04-25T00:22:44;94828.97;;;6.52;100.00
27429;BME280;14881;48.092;11.574;2023-04-25T00:25:13;94823.03;;;6.55;100.00
27429;BME280;14881;48.092;11.574;2023-04-25T00:27:40;94824.31;;;6.62;100.00
27429;BME280;14881;48.092;11.574;2023-04-25T00:30:10;94824.28;;;6.68;100.00
27429;BME280;14881;48.092;11.574;2023-04-25T00:32:37;94821.84;;;6.66;100.00
27429;BME280;14881;48.092;11.574;2023-04-25T00:35:05;94820.72;;;6.72;100.00
27429;BME280;14881;48.092;11.574;2023-04-25T00:37:33;94818.78;;;6.78;100.00
27429;BME280;14881;48.092;11.574;2023-04-25T00:40:01;94820.91;;;6.81;100.00
27429;BME280;14881;48.092;11.574;2023-04-25T00:42:31;94814.19;;;6.78;100.00
27429;BME280;14881;48.092;11.574;2023-04-25T00:44:59;94813.97;;;6.75;100.00
27429;BME280;14881;48.092;11.574;2023-04-25T00:47:28;94813.19;;;6.69;100.00
27429;BME280;14881;48.092;11.574;2023-04-25T00:49:56;94808.59;;;6.70;100.00
27429;BME280;14881;48.092;11.574;2023-04-25T00:52:24;94811.03;;;6.71;100.00
27429;BME280;14881;48.092;11.574;2023-04-25T00:54:51;94813.19;;;6.69;100.00
27429;BME280;14881;48.092;11.574;2023-04-25T00:57:19;94799.50;;;6.60;100.00
27429;BME280;14881;48.092;11.574;2023-04-25T00:59:51;94802.25;;;6.55;100.00
27429;BME280;14881;48.092;11.574;2023-04-25T01:02:19;94800.44;;;6.41;100.00
27429;BME280;14881;48.092;11.574;2023-04-25T01:04:48;94806.44;;;6.33;100.00
27429;BME280;14881;48.092;11.574;2023-04-25T01:07:16;94810.19;;;6.37;100.00
27429;BME280;14881;48.092;11.574;2023-04-25T01:09:44;94809.41;;;6.36;100.00
27429;BME280;14881;48.092;11.574;2023-04-25T01:12:12;94807.22;;;6.38;100.00
27429;BME280;14881;48.092;11.574;2023-04-25T01:14:41;94804.53;;;6.38;100.00
27429;BME280;14881;48.092;11.574;2023-04-25T01:17:10;94807.41;;;6.47;100.00
27429;BME280;14881;48.092;11.574;2023-04-25T01:19:38;94805.28;;;6.44;100.00
27429;BME280;14881;48.092;11.574;2023-04-25T01:22:07;94796.16;;;6.40;100.00
27429;BME280;14881;48.092;11.574;2023-04-25T01:24:37;94805.34;;;6.39;100.00
27429;BME280;14881;48.092;11.574;2023-04-25T01:27:05;94795.34;;;6.39;100.00
27429;BME280;14881;48.092;11.574;2023-04-25T01:29:33;94797.56;;;6.32;100.00
27429;BME280;14881;48.092;11.574;2023-04-25T01:32:02;94796.50;;;6.28;100.00
27429;BME280;14881;48.092;11.574;2023-04-25T01:34:30;94790.03;;;6.24;100.00
27429;BME280;14881;48.092;11.574;2023-04-25T01:36:59;94800.53;;;6.25;100.00
27429;BME280;14881;48.092;11.574;2023-04-25T01:39:29;94802.22;;;6.21;100.00
27429;BME280;14881;48.092;11.574;2023-04-25T01:41:59;94793.34;;;6.16;100.00
27429;BME280;14881;48.092;11.574;2023-04-25T01:44:28;94799.88;;;6.05;100.00
27429;BME280;14881;48.092;11.574;2023-04-25T01:46:55;94792.91;;;5.99;100.00
27429;BME280;14881;48.092;11.574;2023-04-25T01:49:23;94798.88;;;5.90;100.00
27429;BME280;14881;48.092;11.574;2023-04-25T01:51:51;94797.53;;;5.83;100.00
27429;BME280;14881;48.092;11.574;2023-04-25T01:54:19;94800.59;;;5.66;100.00
27429;BME280;14881;48.092;11.574;2023-04-25T01:56:51;94798.97;;;5.60;100.00
27429;BME280;14881;48.092;11.574;2023-04-25T01:59:19;94801.47;;;5.46;100.00
27429;BME280;14881;48.092;11.574;2023-04-25T02:01:48;94804.22;;;5.26;100.00
27429;BME280;14881;48.092;11.574;2023-04-25T02:04:16;94802.63;;;5.05;100.00
27429;BME280;14881;48.092;11.574;2023-04-25T02:06:43;94799.97;;;4.89;100.00
27429;BME280;14881;48.092;11.574;2023-04-25T02:09:11;94798.66;;;4.77;100.00
27429;BME280;14881;48.092;11.574;2023-04-25T02:11:39;94804.31;;;4.60;100.00
27429;BME280;14881;48.092;11.574;2023-04-25T02:14:08;94794.09;;;4.47;100.00
27429;BME280;14881;48.092;11.574;2023-04-25T02:16:36;94800.53;;;4.36;100.00
27429;BME280;14881;48.092;11.574;2023-04-25T02:19:06;94808.88;;;4.34;100.00
27429;BME280;14881;48.092;11.574;2023-04-25T02:21:34;94812.63;;;4.33;100.00
27429;BME280;14881;48.092;11.574;2023-04-25T02:24:02;94808.06;;;4.34;100.00
27429;BME280;14881;48.092;11.574;2023-04-25T02:26:30;94811.56;;;4.39;100.00
27429;BME280;14881;48.092;11.574;2023-04-25T02:28:57;94807.25;;;4.33;100.00
27429;BME280;14881;48.092;11.574;2023-04-25T02:31:27;94802.97;;;4.27;100.00
27429;BME280;14881;48.092;11.574;2023-04-25T02:33:55;94810.75;;;4.34;100.00
27429;BME280;14881;48.092;11.574;2023-04-25T02:36:23;94804.03;;;4.41;100.00
27429;BME280;14881;48.092;11.574;2023-04-25T02:38:50;94804.84;;;4.42;100.00
27429;BME280;14881;48.092;11.574;2023-04-25T02:41:18;94799.19;;;4.38;100.00
27429;BME280;14881;48.092;11.574;2023-04-25T02:43:47;94797.59;;;4.32;100.00
27429;BME280;14881;48.092;11.574;2023-04-25T02:46:15;94798.38;;;4.28;100.00
27429;BME280;14881;48.092;11.574;2023-04-25T02:48:55;94798.91;;;4.25;100.00
27429;BME280;14881;48.092;11.574;2023-04-25T02:51:23;94799.19;;;4.33;100.00
27429;BME280;14881;48.092;11.574;2023-04-25T02:53:51;94805.66;;;4.32;100.00
27429;BME280;14881;48.092;11.574;2023-04-25T02:56:19;94801.63;;;4.40;100.00
27429;BME280;14881;48.092;11.574;2023-04-25T02:58:46;94807.00;;;4.45;100.00
27429;BME280;14881;48.092;11.574;2023-04-25T03:01:14;94801.34;;;4.51;100.00
27429;BME280;14881;48.092;11.574;2023-04-25T03:03:42;94798.38;;;4.53;100.00
27429;BME280;14881;48.092;11.574;2023-04-25T03:06:11;94802.16;;;4.57;100.00
27429;BME280;14881;48.092;11.574;2023-04-25T03:08:39;94812.63;;;4.74;100.00
27429;BME280;14881;48.092;11.574;2023-04-25T03:11:07;94813.16;;;4.91;100.00
27429;BME280;14881;48.092;11.574;2023-04-25T03:13:34;94809.88;;;5.24;100.00
27429;BME280;14881;48.092;11.574;2023-04-25T03:16:02;94812.22;;;5.51;100.00
27429;BME280;14881;48.092;11.574;2023-04-25T03:18:30;94794.81;;;5.88;100.00
27429;BME280;14881;48.092;11.574;2023-04-25T03:20:58;94776.44;;;6.05;100.00
27429;BME280;14881;48.092;11.574;2023-04-25T03:23:27;94774.19;;;6.17;100.00
27429;BME280;14881;48.092;11.574;2023-04-25T03:25:55;94778.78;;;6.12;100.00
27429;BME280;14881;48.092;11.574;2023-04-25T03:28:23;94774.81;;;6.04;100.00
27429;BME280;14881;48.092;11.574;2023-04-25T03:30:51;94776.97;;;6.02;100.00
27429;BME280;14881;48.092;11.574;2023-04-25T03:33:18;94780.50;;;5.98;100.00
27429;BME280;14881;48.092;11.574;2023-04-25T03:35:46;94784.59;;;5.85;100.00
27429;BME280;14881;48.092;11.574;2023-04-25T03:38:14;94776.53;;;5.80;100.00
27429;BME280;14881;48.092;11.574;2023-04-25T03:40:43;94776.53;;;5.75;100.00
27429;BME280;14881;48.092;11.574;2023-04-25T03:43:10;94779.28;;;5.70;100.00
27429;BME280;14881;48.092;11.574;2023-04-25T03:45:38;94776.06;;;5.68;100.00
27429;BME280;14881;48.092;11.574;2023-04-25T03:48:06;94770.69;;;5.63;100.00
27429;BME280;14881;48.092;11.574;2023-04-25T03:50:34;94776.09;;;5.57;100.00
27429;BME280;14881;48.092;11.574;2023-04-25T03:53:02;94779.84;;;5.62;100.00
27429;BME280;14881;48.092;11.574;2023-04-25T03:55:30;94779.31;;;5.65;100.00
27429;BME280;14881;48.092;11.574;2023-04-25T03:57:59;94781.72;;;5.66;100.00
27429;BME280;14881;48.092;11.574;2023-04-25T04:00:27;94775.81;;;5.64;100.00
27429;BME280;14881;48.092;11.574;2023-04-25T04:02:54;94779.56;;;5.68;100.00
27429;BME280;14881;48.092;11.574;2023-04-25T04:05:22;94775.53;;;5.66;100.00
27429;BME280;14881;48.092;11.574;2023-04-25T04:07:51;94780.63;;;5.67;100.00
27429;BME280;14881;48.092;11.574;2023-04-25T04:10:18;94777.13;;;5.67;100.00
27429;BME280;14881;48.092;11.574;2023-04-25T04:12:46;94778.50;;;5.59;100.00
27429;BME280;14881;48.092;11.574;2023-04-25T04:15:15;94778.81;;;5.52;100.00
27429;BME280;14881;48.092;11.574;2023-04-25T04:17:43;94778.28;;;5.50;100.00
27429;BME280;14881;48.092;11.574;2023-04-25T04:20:11;94775.56;;;5.55;100.00
27429;BME280;14881;48.092;11.574;2023-04-25T04:22:39;94768.31;;;5.51;100.00
27429;BME280;14881;48.092;11.574;2023-04-25T04:25:08;94764.56;;;5.47;100.00
27429;BME280;14881;48.092;11.574;2023-04-25T04:27:36;94769.94;;;5.47;100.00
27429;BME280;14881;48.092;11.574;2023-04-25T04:30:05;94772.34;;;5.53;100.00
27429;BME280;14881;48.092;11.574;2023-04-25T04:32:35;94782.06;;;5.49;100.00
27429;BME280;14881;48.092;11.574;2023-04-25T04:35:04;94778.22;;;5.60;100.00
27429;BME280;14881;48.092;11.574;2023-04-25T04:37:32;94775.59;;;5.50;100.00
27429;BME280;14881;48.092;11.574;2023-04-25T04:40:00;94779.31;;;5.54;100.00
27429;BME280;14881;48.092;11.574;2023-04-25T04:42:32;94795.22;;;5.61;100.00
27429;BME280;14881;48.092;11.574;2023-04-25T04:45:00;94791.97;;;5.64;100.00
27429;BME280;14881;48.092;11.574;2023-04-25T04:47:27;94802.47;;;5.71;100.00
27429;BME280;14881;48.092;11.574;2023-04-25T04:50:00;94794.38;;;5.66;100.00
27429;BME280;14881;48.092;11.574;2023-04-25T04:52:29;94790.59;;;5.67;100.00
27429;BME280;14881;48.092;11.574;2023-04-25T04:54:56;94780.09;;;5.65;100.00
27429;BME280;14881;48.092;11.574;2023-04-25T04:57:24;94773.38;;;5.68;100.00
27429;BME280;14881;48.092;11.574;2023-04-25T04:59:53;94767.66;;;5.74;100.00
27429;BME280;14881;48.092;11.574;2023-04-25T05:02:20;94777.88;;;5.82;100.00
27429;BME280;14881;48.092;11.574;2023-04-25T05:04:48;94771.91;;;5.90;100.00
27429;BME280;14881;48.092;11.574;2023-04-25T05:07:19;94774.06;;;5.93;100.00
27429;BME280;14881;48.092;11.574;2023-04-25T05:09:47;94776.75;;;5.93;100.00
27429;BME280;14881;48.092;11.574;2023-04-25T05:12:15;94777.28;;;5.96;100.00
27429;BME280;14881;48.092;11.574;2023-04-25T05:14:42;94776.22;;;5.91;100.00
27429;BME280;14881;48.092;11.574;2023-04-25T05:17:10;94778.38;;;5.94;100.00
27429;BME280;14881;48.092;11.574;2023-04-25T05:19:39;94772.72;;;5.91;100.00
27429;BME280;14881;48.092;11.574;2023-04-25T05:22:06;94768.72;;;5.88;100.00
27429;BME280;14881;48.092;11.574;2023-04-25T05:24:36;94773.00;;;5.89;100.00
27429;BME280;14881;48.092;11.574;2023-04-25T05:27:03;94767.84;;;5.93;100.00
27429;BME280;14881;48.092;11.574;2023-04-25T05:29:32;94780.25;;;5.94;100.00
27429;BME280;14881;48.092;11.574;2023-04-25T05:31:59;94770.00;;;5.96;100.00
27429;BME280;14881;48.092;11.574;2023-04-25T05:34:27;94771.31;;;6.04;100.00
27429;BME280;14881;48.092;11.574;2023-04-25T05:36:55;94766.69;;;6.09;100.00
27429;BME280;14881;48.092;11.574;2023-04-25T05:39:22;94758.81;;;6.18;100.00
27429;BME280;14881;48.092;11.574;2023-04-25T05:41:51;94760.94;;;6.21;100.00
27429;BME280;14881;48.092;11.574;2023-04-25T05:44:19;94762.47;;;6.32;100.00
27429;BME280;14881;48.092;11.574;2023-04-25T05:46:47;94758.56;;;6.48;100.00
27429;BME280;14881;48.092;11.574;2023-04-25T05:49:15;94762.22;;;6.62;100.00
27429;BME280;14881;48.092;11.574;2023-04-25T05:51:45;94749.66;;;6.82;100.00
27429;BME280;14881;48.092;11.574;2023-04-25T05:54:12;94764.25;;;7.10;100.00
27429;BME280;14881;48.092;11.574;2023-04-25T05:56:40;94767.38;;;7.17;100.00
27429;BME280;14881;48.092;11.574;2023-04-25T05:59:09;94775.81;;;7.10;100.00
27429;BME280;14881;48.092;11.574;2023-04-25T06:01:37;94775.16;;;6.94;100.00
27429;BME280;14881;48.092;11.574;2023-04-25T06:04:05;94773.66;;;6.83;100.00
27429;BME280;14881;48.092;11.574;2023-04-25T06:06:33;94783.63;;;6.54;100.00
27429;BME280;14881;48.092;11.574;2023-04-25T06:09:00;94794.59;;;6.28;100.00
27429;BME280;14881;48.092;11.574;2023-04-25T06:11:28;94797.94;;;6.10;100.00
27429;BME280;14881;48.092;11.574;2023-04-25T06:13:56;94809.13;;;5.83;100.00
27429;BME280;14881;48.092;11.574;2023-04-25T06:16:25;94808.66;;;5.71;100.00
27429;BME280;14881;48.092;11.574;2023-04-25T06:18:53;94802.47;;;5.60;100.00
27429;BME280;14881;48.092;11.574;2023-04-25T06:21:21;94805.78;;;5.47;100.00
27429;BME280;14881;48.092;11.574;2023-04-25T06:23:48;94796.94;;;5.27;100.00
27429;BME280;14881;48.092;11.574;2023-04-25T06:26:17;94790.53;;;5.12;100.00
27429;BME280;14881;48.092;11.574;2023-04-25T06:28:45;94789.44;;;5.03;100.00
27429;BME280;14881;48.092;11.574;2023-04-25T06:31:13;94794.03;;;5.13;100.00
27429;BME280;14881;48.092;11.574;2023-04-25T06:33:43;94790.47;;;5.22;100.00
27429;BME280;14881;48.092;11.574;2023-04-25T06:36:10;94785.31;;;5.41;100.00
27429;BME280;14881;48.092;11.574;2023-04-25T06:38:38;94784.44;;;5.61;100.00
27429;BME280;14881;48.092;11.574;2023-04-25T06:41:06;94786.75;;;5.83;100.00
27429;BME280;14881;48.092;11.574;2023-04-25T06:43:33;94786.47;;;5.89;100.00
27429;BME280;14881;48.092;11.574;2023-04-25T06:46:01;94781.88;;;5.90;100.00
27429;BME280;14881;48.092;11.574;2023-04-25T06:48:29;94785.41;;;5.85;100.00
27429;BME280;14881;48.092;11.574;2023-04-25T06:50:58;94778.63;;;5.93;100.00
27429;BME280;14881;48.092;11.574;2023-04-25T06:53:26;94781.75;;;6.15;100.00
27429;BME280;14881;48.092;11.574;2023-04-25T06:55:53;94787.34;;;6.24;100.00
27429;BME280;14881;48.092;11.574;2023-04-25T06:58:21;94783.97;;;6.42;100.00
27429;BME280;14881;48.092;11.574;2023-04-25T07:00:49;94786.19;;;6.40;100.00
27429;BME280;14881;48.092;11.574;2023-04-25T07:03:16;94781.63;;;6.31;100.00
27429;BME280;14881;48.092;11.574;2023-04-25T07:05:44;94789.47;;;6.32;100.00
27429;BME280;14881;48.092;11.574;2023-04-25T07:08:14;94781.34;;;6.37;100.00
27429;BME280;14881;48.092;11.574;2023-04-25T07:10:42;94778.09;;;6.35;100.00
27429;BME280;14881;48.092;11.574;2023-04-25T07:13:10;94780.28;;;6.33;100.00
27429;BME280;14881;48.092;11.574;2023-04-25T07:15:37;94774.56;;;6.40;100.00
27429;BME280;14881;48.092;11.574;2023-04-25T07:18:05;94773.16;;;6.47;100.00
27429;BME280;14881;48.092;11.574;2023-04-25T07:20:33;94767.06;;;6.66;100.00
27429;BME280;14881;48.092;11.574;2023-04-25T07:23:01;94771.00;;;6.78;100.00
27429;BME280;14881;48.092;11.574;2023-04-25T07:25:30;94767.34;;;6.93;100.00
27429;BME280;14881;48.092;11.574;2023-04-25T07:27:57;94774.00;;;7.06;100.00
27429;BME280;14881;48.092;11.574;2023-04-25T07:30:25;94762.91;;;7.31;100.00
27429;BME280;14881;48.092;11.574;2023-04-25T07:32:53;94760.91;;;7.42;100.00
27429;BME280;14881;48.092;11.574;2023-04-25T07:35:22;94759.97;;;7.51;100.00
27429;BME280;14881;48.092;11.574;2023-04-25T07:37:49;94753.94;;;7.36;100.00
27429;BME280;14881;48.092;11.574;2023-04-25T07:40:17;94759.63;;;7.34;100.00
27429;BME280;14881;48.092;11.574;2023-04-25T07:42:46;94753.78;;;7.27;100.00
27429;BME280;14881;48.092;11.574;2023-04-25T07:45:14;94757.38;;;7.17;100.00
27429;BME280;14881;48.092;11.574;2023-04-25T07:47:42;94758.06;;;7.28;100.00
27429;BME280;14881;48.092;11.574;2023-04-25T07:50:10;94760.97;;;7.37;100.00
27429;BME280;14881;48.092;11.574;2023-04-25T07:52:38;94759.13;;;7.56;100.00
27429;BME280;14881;48.092;11.574;2023-04-25T07:55:06;94749.72;;;7.72;100.00
27429;BME280;14881;48.092;11.574;2023-04-25T07:57:34;94753.84;;;7.88;100.00
27429;BME280;14881;48.092;11.574;2023-04-25T08:00:04;94748.50;;;8.02;100.00
27429;BME280;14881;48.092;11.574;2023-04-25T08:02:35;94737.31;;;8.27;100.00
27429;BME280;14881;48.092;11.574;2023-04-25T08:05:04;94733.94;;;8.54;100.00
27429;BME280;14881;48.092;11.574;2023-04-25T08:07:34;94728.81;;;8.85;100.00
27429;BME280;14881;48.092;11.574;2023-04-25T08:10:02;94736.28;;;9.21;100.00
27429;BME280;14881;48.092;11.574;2023-04-25T08:12:31;94721.44;;;9.59;100.00
27429;BME280;14881;48.092;11.574;2023-04-25T08:14:58;94719.31;;;9.84;100.00
27429;BME280;14881;48.092;11.574;2023-04-25T08:17:27;94708.47;;;9.84;100.00
27429;BME280;14881;48.092;11.574;2023-04-25T08:19:55;94716.88;;;9.96;100.00
27429;BME280;14881;48.092;11.574;2023-04-25T08:22:23;94717.00;;;10.27;100.00
27429;BME280;14881;48.092;11.574;2023-04-25T08:24:51;94711.47;;;10.76;100.00
27429;BME280;14881;48.092;11.574;2023-04-25T08:27:18;94719.41;;;10.95;100.00
27429;BME280;14881;48.092;11.574;2023-04-25T08:29:47;94705.19;;;10.67;100.00
27429;BME280;14881;48.092;11.574;2023-04-25T08:32:15;94711.78;;;10.30;100.00
27429;BME280;14881;48.092;11.574;2023-04-25T08:34:45;94719.44;;;10.15;100.00
27429;BME280;14881;48.092;11.574;2023-04-25T08:37:13;94718.78;;;9.95;100.00
27429;BME280;14881;48.092;11.574;2023-04-25T08:39:41;94717.47;;;9.93;100.00
27429;BME280;14881;48.092;11.574;2023-04-25T08:42:09;94730.00;;;9.66;100.00
27429;BME280;14881;48.092;11.574;2023-04-25T08:44:39;94732.38;;;9.54;100.00
27429;BME280;14881;48.092;11.574;2023-04-25T08:47:07;94730.25;;;9.78;100.00
27429;BME280;14881;48.092;11.574;2023-04-25T08:49:35;94729.09;;;10.07;100.00
27429;BME280;14881;48.092;11.574;2023-04-25T08:52:05;94724.03;;;10.28;100.00
27429;BME280;14881;48.092;11.574;2023-04-25T08:54:33;94726.22;;;10.39;100.00
27429;BME280;14881;48.092;11.574;2023-04-25T08:57:05;94717.28;;;10.61;100.00
27429;BME280;14881;48.092;11.574;2023-04-25T08:59:33;94721.72;;;10.79;100.00
27429;BME280;14881;48.092;11.574;2023-04-25T09:02:04;94715.19;;;11.11;100.00
27429;BME280;14881;48.092;11.574;2023-04-25T09:04:32;94725.88;;;11.39;100.00
27429;BME280;14881;48.092;11.574;2023-04-25T09:06:59;94725.72;;;11.04;100.00
27429;BME280;14881;48.092;11.574;2023-04-25T09:09:29;94728.13;;;11.06;100.00
27429;BME280;14881;48.092;11.574;2023-04-25T09:11:57;94718.34;;;11.05;100.00
27429;BME280;14881;48.092;11.574;2023-04-25T09:14:25;94718.31;;;10.96;100.00
27429;BME280;14881;48.092;11.574;2023-04-25T09:16:59;94718.78;;;10.98;100.00
27429;BME280;14881;48.092;11.574;2023-04-25T09:19:28;94713.56;;;11.41;100.00
27429;BME280;14881;48.092;11.574;2023-04-25T09:22:01;94724.03;;;11.57;100.00
27429;BME280;14881;48.092;11.574;2023-04-25T09:24:35;94723.03;;;11.92;100.00
27429;BME280;14881;48.092;11.574;2023-04-25T09:27:04;94736.22;;;11.68;100.00
27429;BME280;14881;48.092;11.574;2023-04-25T09:29:33;94722.19;;;11.83;100.00
27429;BME280;14881;48.092;11.574;2023-04-25T09:32:12;94729.81;;;12.20;100.00
27429;BME280;14881;48.092;11.574;2023-04-25T09:34:41;94728.69;;;12.39;100.00
27429;BME280;14881;48.092;11.574;2023-04-25T09:37:09;94726.75;;;12.22;100.00
27429;BME280;14881;48.092;11.574;2023-04-25T09:39:39;94729.97;;;12.24;100.00
27429;BME280;14881;48.092;11.574;2023-04-25T09:42:09;94733.47;;;12.16;100.00
27429;BME280;14881;48.092;11.574;2023-04-25T09:44:36;94734.91;;;12.05;100.00
27429;BME280;14881;48.092;11.574;2023-04-25T09:47:09;94736.03;;;12.04;100.00
27429;BME280;14881;48.092;11.574;2023-04-25T09:49:39;94743.25;;;12.08;100.00
27429;BME280;14881;48.092;11.574;2023-04-25T09:52:07;94733.13;;;12.00;100.00
27429;BME280;14881;48.092;11.574;2023-04-25T09:54:35;94732.16;;;11.88;100.00
27429;BME280;14881;48.092;11.574;2023-04-25T09:57:12;94731.53;;;11.99;100.00
27429;BME280;14881;48.092;11.574;2023-04-25T09:59:44;94736.41;;;11.71;100.00
27429;BME280;14881;48.092;11.574;2023-04-25T10:02:14;94742.22;;;11.47;100.00
27429;BME280;14881;48.092;11.574;2023-04-25T10:04:44;94733.06;;;11.43;100.00
27429;BME280;14881;48.092;11.574;2023-04-25T10:07:14;94742.25;;;10.94;100.00
27429;BME280;14881;48.092;11.574;2023-04-25T10:09:42;94732.00;;;10.91;100.00
27429;BME280;14881;48.092;11.574;2023-04-25T10:12:13;94731.88;;;10.96;100.00
27429;BME280;14881;48.092;11.574;2023-04-25T10:14:42;94738.44;;;11.26;100.00
27429;BME280;14881;48.092;11.574;2023-04-25T10:17:10;94738.69;;;11.47;100.00
27429;BME280;14881;48.092;11.574;2023-04-25T10:19:39;94728.91;;;11.37;100.00
27429;BME280;14881;48.092;11.574;2023-04-25T10:22:12;94728.81;;;12.16;100.00
27429;BME280;14881;48.092;11.574;2023-04-25T10:24:42;94720.94;;;13.18;100.00
27429;BME280;14881;48.092;11.574;2023-04-25T10:27:10;94712.38;;;14.25;100.00
27429;BME280;14881;48.092;11.574;2023-04-25T10:29:41;94707.72;;;14.88;96.79
27429;BME280;14881;48.092;11.574;2023-04-25T10:32:09;94711.25;;;14.26;95.59
27429;BME280;14881;48.092;11.574;2023-04-25T10:34:39;94709.75;;;14.08;98.46
27429;BME280;14881;48.092;11.574;2023-04-25T10:37:10;94726.66;;;13.34;98.19
27429;BME280;14881;48.092;11.574;2023-04-25T10:39:39;94732.84;;;12.88;100.00
27429;BME280;14881;48.092;11.574;2023-04-25T10:42:08;94738.94;;;12.25;100.00
27429;BME280;14881;48.092;11.574;2023-04-25T10:44:37;94758.47;;;11.70;100.00
27429;BME280;14881;48.092;11.574;2023-04-25T10:47:07;94755.66;;;11.13;100.00
27429;BME280;14881;48.092;11.574;2023-04-25T10:49:37;94756.81;;;10.90;100.00
27429;BME280;14881;48.092;11.574;2023-04-25T10:52:24;94770.44;;;10.76;100.00
27429;BME280;14881;48.092;11.574;2023-04-25T10:54:53;94779.00;;;10.47;100.00
27429;BME280;14881;48.092;11.574;2023-04-25T10:57:32;94786.63;;;9.82;100.00
27429;BME280;14881;48.092;11.574;2023-04-25T11:00:09;94798.44;;;9.17;100.00
27429;BME280;14881;48.092;11.574;2023-04-25T11:02:42;94799.09;;;8.77;100.00
27429;BME280;14881;48.092;11.574;2023-04-25T11:05:19;94803.88;;;8.66;100.00
27429;BME280;14881;48.092;11.574;2023-04-25T11:07:50;94788.41;;;8.85;100.00
27429;BME280;14881;48.092;11.574;2023-04-25T11:10:30;94810.41;;;9.30;100.00
27429;BME280;14881;48.092;11.574;2023-04-25T11:12:59;94806.53;;;9.63;100.00
27429;BME280;14881;48.092;11.574;2023-04-25T11:15:27;94812.34;;;9.84;100.00
27429;BME280;14881;48.092;11.574;2023-04-25T11:17:56;94808.72;;;9.75;100.00
27429;BME280;14881;48.092;11.574;2023-04-25T11:20:26;94808.81;;;9.70;100.00
27429;BME280;14881;48.092;11.574;2023-04-25T11:22:57;94832.31;;;9.47;100.00
27429;BME280;14881;48.092;11.574;2023-04-25T11:25:25;94838.69;;;8.91;100.00
27429;BME280;14881;48.092;11.574;2023-04-25T11:27:55;94851.09;;;8.41;100.00
27429;BME280;14881;48.092;11.574;2023-04-25T11:30:25;94859.50;;;8.16;100.00
27429;BME280;14881;48.092;11.574;2023-04-25T11:32:53;94856.16;;;8.24;100.00
27429;BME280;14881;48.092;11.574;2023-04-25T11:35:22;94867.09;;;8.37;100.00
27429;BME280;14881;48.092;11.574;2023-04-25T11:37:52;94859.78;;;8.38;100.00
27429;BME280;14881;48.092;11.574;2023-04-25T11:40:19;94865.94;;;8.44;100.00
27429;BME280;14881;48.092;11.574;2023-04-25T11:42:47;94879.31;;;8.35;100.00
27429;BME280;14881;48.092;11.574;2023-04-25T11:45:15;94879.81;;;8.37;100.00
27429;BME280;14881;48.092;11.574;2023-04-25T11:47:45;94895.41;;;8.21;100.00
27429;BME280;14881;48.092;11.574;2023-04-25T11:50:13;94899.28;;;7.91;100.00
27429;BME280;14881;48.092;11.574;2023-04-25T11:52:44;94895.25;;;7.89;100.00
27429;BME280;14881;48.092;11.574;2023-04-25T11:55:13;94888.28;;;7.83;100.00
27429;BME280;14881;48.092;11.574;2023-04-25T11:57:42;94890.13;;;7.87;100.00
27429;BME280;14881;48.092;11.574;2023-04-25T12:00:12;94896.75;;;7.76;100.00
27429;BME280;14881;48.092;11.574;2023-04-25T12:02:45;94892.53;;;7.65;100.00
27429;BME280;14881;48.092;11.574;2023-04-25T12:05:14;94895.81;;;7.62;100.00
27429;BME280;14881;48.092;11.574;2023-04-25T12:08:09;94898.13;;;7.74;100.00
27429;BME280;14881;48.092;11.574;2023-04-25T12:10:37;94892.72;;;7.74;100.00
27429;BME280;14881;48.092;11.574;2023-04-25T12:13:19;94896.13;;;7.60;100.00
27429;BME280;14881;48.092;11.574;2023-04-25T12:15:47;94895.06;;;7.56;100.00
27429;BME280;14881;48.092;11.574;2023-04-25T12:18:19;94899.56;;;7.66;100.00
27429;BME280;14881;48.092;11.574;2023-04-25T12:20:47;94901.03;;;7.53;100.00
27429;BME280;14881;48.092;11.574;2023-04-25T12:23:16;94901.84;;;7.54;100.00
27429;BME280;14881;48.092;11.574;2023-04-25T12:25:44;94904.47;;;7.30;100.00
27429;BME280;14881;48.092;11.574;2023-04-25T12:28:15;94910.38;;;7.37;100.00
27429;BME280;14881;48.092;11.574;2023-04-25T12:30:56;94908.91;;;7.50;100.00
27429;BME280;14881;48.092;11.574;2023-04-25T12:33:26;94909.28;;;7.67;100.00
27429;BME280;14881;48.092;11.574;2023-04-25T12:35:54;94913.53;;;7.73;100.00
27429;BME280;14881;48.092;11.574;2023-04-25T12:38:25;94905.00;;;7.90;100.00
27429;BME280;14881;48.092;11.574;2023-04-25T12:40:53;94900.34;;;8.14;100.00
27429;BME280;14881;48.092;11.574;2023-04-25T12:43:21;94908.66;;;8.23;100.00
27429;BME280;14881;48.092;11.574;2023-04-25T12:45:49;94908.03;;;8.31;100.00
27429;BME280;14881;48.092;11.574;2023-04-25T12:48:17;94910.78;;;8.50;100.00
27429;BME280;14881;48.092;11.574;2023-04-25T12:50:46;94905.47;;;8.63;100.00
27429;BME280;14881;48.092;11.574;2023-04-25T12:53:15;94901.94;;;8.63;100.00
27429;BME280;14881;48.092;11.574;2023-04-25T12:55:44;94908.78;;;8.36;100.00